sensor_id;sensor_type;location;lat;lon;timestamp;P1;durP1;ratioP1;P2;durP2;ratioP2
12654;SDS011;6392;44.644;11.448;2023-07-13T00:00:09;16.10;;;7.20;;
12654;SDS011;6392;44.644;11.448;2023-07-13T00:02:38;15.27;;;6.35;;
12654;SDS011;6392;44.644;11.448;2023-07-13T00:05:05;13.63;;;6.00;;
12654;SDS011;6392;44.644;11.448;2023-07-13T00:07:33;14.10;;;6.63;;
12654;SDS011;6392;44.644;11.448;2023-07-13T00:10:00;10.82;;;6.18;;
12654;SDS011;6392;44.644;11.448;2023-07-13T00:12:28;12.30;;;6.53;;
12654;SDS011;6392;44.644;11.448;2023-07-13T00:14:56;12.02;;;6.38;;
12654;SDS011;6392;44.644;11.448;2023-07-13T00:17:25;17.08;;;6.68;;
12654;SDS011;6392;44.644;11.448;2023-07-13T00:19:54;8.82;;;6.72;;
12654;SDS011;6392;44.644;11.448;2023-07-13T00:22:23;12.30;;;7.55;;
12654;SDS011;6392;44.644;11.448;2023-07-13T00:24:51;13.95;;;7.07;;
12654;SDS011;6392;44.644;11.448;2023-07-13T00:27:21;14.13;;;7.45;;
12654;SDS011;6392;44.644;11.448;2023-07-13T00:29:48;12.43;;;7.32;;
12654;SDS011;6392;44.644;11.448;2023-07-13T00:32:15;10.70;;;7.45;;
12654;SDS011;6392;44.644;11.448;2023-07-13T00:34:42;12.80;;;7.55;;
12654;SDS011;6392;44.644;11.448;2023-07-13T00:37:11;17.48;;;7.82;;
12654;SDS011;6392;44.644;11.448;2023-07-13T00:39:38;13.85;;;7.57;;
12654;SDS011;6392;44.644;11.448;2023-07-13T00:42:05;13.05;;;7.93;;
12654;SDS011;6392;44.644;11.448;2023-07-13T00:44:32;11.25;;;8.35;;
12654;SDS011;6392;44.644;11.448;2023-07-13T00:46:59;14.35;;;8.10;;
12654;SDS011;6392;44.644;11.448;2023-07-13T00:49:27;13.25;;;9.35;;
12654;SDS011;6392;44.644;11.448;2023-07-13T00:51:57;11.20;;;9.60;;
12654;SDS011;6392;44.644;11.448;2023-07-13T00:54:29;12.68;;;9.98;;
12654;SDS011;6392;44.644;11.448;2023-07-13T00:56:59;14.20;;;10.25;;
12654;SDS011;6392;44.644;11.448;2023-07-13T00:59:28;18.10;;;10.75;;
12654;SDS011;6392;44.644;11.448;2023-07-13T01:01:55;16.50;;;10.10;;
12654;SDS011;6392;44.644;11.448;2023-07-13T01:04:23;13.80;;;10.35;;
12654;SDS011;6392;44.644;11.448;2023-07-13T01:06:50;18.27;;;10.85;;
12654;SDS011;6392;44.644;11.448;2023-07-13T01:09:18;15.52;;;10.95;;
12654;SDS011;6392;44.644;11.448;2023-07-13T01:11:48;12.63;;;11.02;;
12654;SDS011;6392;44.644;11.448;2023-07-13T01:14:15;14.65;;;9.77;;
12654;SDS011;6392;44.644;11.448;2023-07-13T01:16:43;12.30;;;8.80;;
12654;SDS011;6392;44.644;11.448;2023-07-13T01:19:21;9.95;;;6.60;;
12654;SDS011;6392;44.644;11.448;2023-07-13T01:22:03;11.60;;;5.63;;
12654;SDS011;6392;44.644;11.448;2023-07-13T01:24:33;5.88;;;4.00;;
12654;SDS011;6392;44.644;11.448;2023-07-13T01:27:01;9.85;;;4.07;;
12654;SDS011;6392;44.644;11.448;2023-07-13T01:29:30;11.73;;;3.40;;
12654;SDS011;6392;44.644;11.448;2023-07-13T01:31:57;6.57;;;3.50;;
12654;SDS011;6392;44.644;11.448;2023-07-13T01:34:25;5.53;;;3.42;;
12654;SDS011;6392;44.644;11.448;2023-07-13T01:36:52;6.40;;;3.55;;
12654;SDS011;6392;44.644;11.448;2023-07-13T01:39:21;5.72;;;3.38;;
12654;SDS011;6392;44.644;11.448;2023-07-13T01:41:49;6.82;;;3.40;;
12654;SDS011;6392;44.644;11.448;2023-07-13T01:44:16;7.00;;;3.10;;
12654;SDS011;6392;44.644;11.448;2023-07-13T01:46:43;5.13;;;3.20;;
12654;SDS011;6392;44.644;11.448;2023-07-13T01:49:10;4.82;;;2.88;;
12654;SDS011;6392;44.644;11.448;2023-07-13T01:51:36;5.15;;;3.28;;
12654;SDS011;6392;44.644;11.448;2023-07-13T01:54:03;9.82;;;3.22;;
12654;SDS011;6392;44.644;11.448;2023-07-13T01:56:32;6.32;;;3.28;;
12654;SDS011;6392;44.644;11.448;2023-07-13T01:58:59;5.13;;;3.33;;
12654;SDS011;6392;44.644;11.448;2023-07-13T02:01:26;8.93;;;3.47;;
12654;SDS011;6392;44.644;11.448;2023-07-13T02:03:53;12.90;;;4.20;;
12654;SDS011;6392;44.644;11.448;2023-07-13T02:06:20;11.75;;;3.60;;
12654;SDS011;6392;44.644;11.448;2023-07-13T02:08:47;6.80;;;3.75;;
12654;SDS011;6392;44.644;11.448;2023-07-13T02:11:14;5.68;;;3.60;;
12654;SDS011;6392;44.644;11.448;2023-07-13T02:13:42;6.85;;;3.50;;
12654;SDS011;6392;44.644;11.448;2023-07-13T02:16:09;5.40;;;3.70;;
12654;SDS011;6392;44.644;11.448;2023-07-13T02:18:36;7.15;;;3.80;;
12654;SDS011;6392;44.644;11.448;2023-07-13T02:21:03;10.82;;;3.65;;
12654;SDS011;6392;44.644;11.448;2023-07-13T02:23:31;5.85;;;3.30;;
12654;SDS011;6392;44.644;11.448;2023-07-13T02:25:59;5.63;;;3.35;;
12654;SDS011;6392;44.644;11.448;2023-07-13T02:28:27;7.72;;;3.40;;
12654;SDS011;6392;44.644;11.448;2023-07-13T02:31:03;4.88;;;3.15;;
12654;SDS011;6392;44.644;11.448;2023-07-13T02:33:31;5.45;;;3.75;;
12654;SDS011;6392;44.644;11.448;2023-07-13T02:35:58;5.50;;;3.13;;
12654;SDS011;6392;44.644;11.448;2023-07-13T02:38:25;5.25;;;3.00;;
12654;SDS011;6392;44.644;11.448;2023-07-13T02:40:52;5.00;;;2.50;;
12654;SDS011;6392;44.644;11.448;2023-07-13T02:43:19;5.95;;;2.65;;
12654;SDS011;6392;44.644;11.448;2023-07-13T02:45:46;5.55;;;3.53;;
12654;SDS011;6392;44.644;11.448;2023-07-13T02:48:15;5.97;;;3.05;;
12654;SDS011;6392;44.644;11.448;2023-07-13T02:50:43;4.88;;;3.40;;
12654;SDS011;6392;44.644;11.448;2023-07-13T02:53:11;7.22;;;3.63;;
12654;SDS011;6392;44.644;11.448;2023-07-13T02:55:38;5.35;;;3.50;;
12654;SDS011;6392;44.644;11.448;2023-07-13T02:58:06;6.95;;;3.30;;
12654;SDS011;6392;44.644;11.448;2023-07-13T03:00:33;5.30;;;3.25;;
12654;SDS011;6392;44.644;11.448;2023-07-13T03:03:00;4.47;;;3.17;;
12654;SDS011;6392;44.644;11.448;2023-07-13T03:05:28;6.32;;;3.97;;
12654;SDS011;6392;44.644;11.448;2023-07-13T03:07:55;9.18;;;4.13;;
12654;SDS011;6392;44.644;11.448;2023-07-13T03:10:23;5.57;;;3.65;;
12654;SDS011;6392;44.644;11.448;2023-07-13T03:12:50;4.68;;;3.08;;
12654;SDS011;6392;44.644;11.448;2023-07-13T03:15:17;5.70;;;3.03;;
12654;SDS011;6392;44.644;11.448;2023-07-13T03:17:44;7.32;;;3.50;;
12654;SDS011;6392;44.644;11.448;2023-07-13T03:20:11;5.43;;;3.10;;
12654;SDS011;6392;44.644;11.448;2023-07-13T03:22:40;5.72;;;3.10;;
12654;SDS011;6392;44.644;11.448;2023-07-13T03:25:07;8.68;;;3.63;;
12654;SDS011;6392;44.644;11.448;2023-07-13T03:27:35;9.48;;;3.60;;
12654;SDS011;6392;44.644;11.448;2023-07-13T03:30:03;4.93;;;3.40;;
12654;SDS011;6392;44.644;11.448;2023-07-13T03:32:31;5.88;;;3.30;;
12654;SDS011;6392;44.644;11.448;2023-07-13T03:34:58;6.22;;;3.78;;
12654;SDS011;6392;44.644;11.448;2023-07-13T03:37:26;4.50;;;3.30;;
12654;SDS011;6392;44.644;11.448;2023-07-13T03:39:54;8.25;;;4.10;;
12654;SDS011;6392;44.644;11.448;2023-07-13T03:42:21;5.55;;;3.40;;
12654;SDS011;6392;44.644;11.448;2023-07-13T03:44:48;5.60;;;3.20;;
12654;SDS011;6392;44.644;11.448;2023-07-13T03:47:17;8.73;;;4.03;;
12654;SDS011;6392;44.644;11.448;2023-07-13T03:49:44;7.40;;;3.22;;
12654;SDS011;6392;44.644;11.448;2023-07-13T03:52:12;6.90;;;3.03;;
12654;SDS011;6392;44.644;11.448;2023-07-13T03:54:39;8.35;;;3.33;;
12654;SDS011;6392;44.644;11.448;2023-07-13T03:57:07;5.20;;;3.67;;
12654;SDS011;6392;44.644;11.448;2023-07-13T03:59:34;8.68;;;4.13;;
12654;SDS011;6392;44.644;11.448;2023-07-13T04:02:01;4.43;;;3.30;;
12654;SDS011;6392;44.644;11.448;2023-07-13T04:04:30;6.50;;;3.85;;
12654;SDS011;6392;44.644;11.448;2023-07-13T04:06:57;8.00;;;3.85;;
12654;SDS011;6392;44.644;11.448;2023-07-13T04:09:24;5.50;;;3.22;;
12654;SDS011;6392;44.644;11.448;2023-07-13T04:11:51;5.70;;;3.65;;
12654;SDS011;6392;44.644;11.448;2023-07-13T04:14:20;5.22;;;3.22;;
12654;SDS011;6392;44.644;11.448;2023-07-13T04:16:47;6.35;;;3.63;;
12654;SDS011;6392;44.644;11.448;2023-07-13T04:19:14;5.97;;;3.03;;
12654;SDS011;6392;44.644;11.448;2023-07-13T04:21:41;4.13;;;3.00;;
12654;SDS011;6392;44.644;11.448;2023-07-13T04:24:08;7.03;;;3.38;;
12654;SDS011;6392;44.644;11.448;2023-07-13T04:26:35;7.13;;;3.50;;
12654;SDS011;6392;44.644;11.448;2023-07-13T04:29:03;4.63;;;3.25;;
12654;SDS011;6392;44.644;11.448;2023-07-13T04:31:32;3.97;;;2.97;;
12654;SDS011;6392;44.644;11.448;2023-07-13T04:33:59;5.03;;;3.25;;
12654;SDS011;6392;44.644;11.448;2023-07-13T04:36:28;6.18;;;2.95;;
12654;SDS011;6392;44.644;11.448;2023-07-13T04:38:55;7.68;;;2.95;;
12654;SDS011;6392;44.644;11.448;2023-07-13T04:41:22;4.95;;;3.00;;
12654;SDS011;6392;44.644;11.448;2023-07-13T04:43:49;3.15;;;2.40;;
12654;SDS011;6392;44.644;11.448;2023-07-13T04:46:16;4.47;;;2.50;;
12654;SDS011;6392;44.644;11.448;2023-07-13T04:48:45;9.45;;;3.03;;
12654;SDS011;6392;44.644;11.448;2023-07-13T04:51:12;5.25;;;2.70;;
12654;SDS011;6392;44.644;11.448;2023-07-13T04:53:39;5.72;;;3.00;;
12654;SDS011;6392;44.644;11.448;2023-07-13T04:56:06;9.15;;;2.78;;
12654;SDS011;6392;44.644;11.448;2023-07-13T04:58:33;7.18;;;2.88;;
12654;SDS011;6392;44.644;11.448;2023-07-13T05:01:01;5.03;;;2.78;;
12654;SDS011;6392;44.644;11.448;2023-07-13T05:03:28;5.38;;;2.45;;
12654;SDS011;6392;44.644;11.448;2023-07-13T05:05:58;5.72;;;2.72;;
12654;SDS011;6392;44.644;11.448;2023-07-13T05:08:26;9.70;;;2.50;;
12654;SDS011;6392;44.644;11.448;2023-07-13T05:10:53;8.15;;;2.40;;
12654;SDS011;6392;44.644;11.448;2023-07-13T05:13:20;2.80;;;1.98;;
12654;SDS011;6392;44.644;11.448;2023-07-13T05:15:55;6.38;;;2.38;;
12654;SDS011;6392;44.644;11.448;2023-07-13T05:18:22;4.93;;;2.70;;
12654;SDS011;6392;44.644;11.448;2023-07-13T05:20:56;7.80;;;2.50;;
12654;SDS011;6392;44.644;11.448;2023-07-13T05:23:26;3.60;;;2.28;;
12654;SDS011;6392;44.644;11.448;2023-07-13T05:25:53;7.40;;;2.63;;
12654;SDS011;6392;44.644;11.448;2023-07-13T05:28:20;4.32;;;2.72;;
12654;SDS011;6392;44.644;11.448;2023-07-13T05:30:47;5.13;;;2.20;;
12654;SDS011;6392;44.644;11.448;2023-07-13T05:33:15;5.28;;;2.05;;
12654;SDS011;6392;44.644;11.448;2023-07-13T05:35:43;3.55;;;1.90;;
12654;SDS011;6392;44.644;11.448;2023-07-13T05:38:11;5.28;;;2.05;;
12654;SDS011;6392;44.644;11.448;2023-07-13T05:40:38;3.35;;;1.92;;
12654;SDS011;6392;44.644;11.448;2023-07-13T05:43:05;3.17;;;2.15;;
12654;SDS011;6392;44.644;11.448;2023-07-13T05:45:32;3.08;;;2.05;;
12654;SDS011;6392;44.644;11.448;2023-07-13T05:47:59;3.40;;;1.90;;
12654;SDS011;6392;44.644;11.448;2023-07-13T05:50:26;5.40;;;2.30;;
12654;SDS011;6392;44.644;11.448;2023-07-13T05:52:53;3.78;;;1.95;;
12654;SDS011;6392;44.644;11.448;2023-07-13T05:55:23;4.70;;;2.15;;
12654;SDS011;6392;44.644;11.448;2023-07-13T05:57:49;7.35;;;2.28;;
12654;SDS011;6392;44.644;11.448;2023-07-13T06:00:17;5.68;;;2.38;;
12654;SDS011;6392;44.644;11.448;2023-07-13T06:02:44;2.63;;;1.90;;
12654;SDS011;6392;44.644;11.448;2023-07-13T06:05:11;3.33;;;1.80;;
12654;SDS011;6392;44.644;11.448;2023-07-13T06:07:38;5.43;;;2.35;;
12654;SDS011;6392;44.644;11.448;2023-07-13T06:10:05;9.40;;;2.40;;
12654;SDS011;6392;44.644;11.448;2023-07-13T06:12:34;4.40;;;2.58;;
12654;SDS011;6392;44.644;11.448;2023-07-13T06:15:01;5.25;;;2.05;;
12654;SDS011;6392;44.644;11.448;2023-07-13T06:17:29;5.68;;;2.72;;
12654;SDS011;6392;44.644;11.448;2023-07-13T06:19:56;9.02;;;1.95;;
12654;SDS011;6392;44.644;11.448;2023-07-13T06:22:23;3.55;;;2.05;;
12654;SDS011;6392;44.644;11.448;2023-07-13T06:24:49;6.55;;;2.40;;
12654;SDS011;6392;44.644;11.448;2023-07-13T06:27:17;4.05;;;2.15;;
12654;SDS011;6392;44.644;11.448;2023-07-13T06:29:45;3.40;;;2.10;;
12654;SDS011;6392;44.644;11.448;2023-07-13T06:32:12;4.75;;;2.17;;
12654;SDS011;6392;44.644;11.448;2023-07-13T06:34:39;3.17;;;2.30;;
12654;SDS011;6392;44.644;11.448;2023-07-13T06:37:06;3.50;;;1.88;;
12654;SDS011;6392;44.644;11.448;2023-07-13T06:39:33;5.28;;;2.30;;
12654;SDS011;6392;44.644;11.448;2023-07-13T06:42:00;6.85;;;2.33;;
12654;SDS011;6392;44.644;11.448;2023-07-13T06:44:27;6.35;;;2.45;;
12654;SDS011;6392;44.644;11.448;2023-07-13T06:46:55;4.90;;;2.55;;
12654;SDS011;6392;44.644;11.448;2023-07-13T06:49:22;3.85;;;2.42;;
12654;SDS011;6392;44.644;11.448;2023-07-13T06:51:49;6.32;;;2.60;;
12654;SDS011;6392;44.644;11.448;2023-07-13T06:54:16;8.90;;;2.88;;
12654;SDS011;6392;44.644;11.448;2023-07-13T06:56:43;5.20;;;2.88;;
12654;SDS011;6392;44.644;11.448;2023-07-13T06:59:10;7.38;;;2.80;;
12654;SDS011;6392;44.644;11.448;2023-07-13T07:01:37;9.18;;;3.28;;
12654;SDS011;6392;44.644;11.448;2023-07-13T07:04:06;6.10;;;2.90;;
12654;SDS011;6392;44.644;11.448;2023-07-13T07:06:33;4.07;;;2.97;;
12654;SDS011;6392;44.644;11.448;2023-07-13T07:09:00;4.50;;;2.63;;
12654;SDS011;6392;44.644;11.448;2023-07-13T07:11:27;4.32;;;2.53;;
12654;SDS011;6392;44.644;11.448;2023-07-13T07:13:54;6.90;;;2.95;;
12654;SDS011;6392;44.644;11.448;2023-07-13T07:16:21;6.53;;;3.28;;
12654;SDS011;6392;44.644;11.448;2023-07-13T07:18:51;10.88;;;3.60;;
12654;SDS011;6392;44.644;11.448;2023-07-13T07:21:19;6.90;;;3.50;;
12654;SDS011;6392;44.644;11.448;2023-07-13T07:23:48;6.10;;;3.33;;
12654;SDS011;6392;44.644;11.448;2023-07-13T07:26:15;3.53;;;2.70;;
12654;SDS011;6392;44.644;11.448;2023-07-13T07:28:42;6.65;;;3.22;;
12654;SDS011;6392;44.644;11.448;2023-07-13T07:31:09;7.93;;;3.45;;
12654;SDS011;6392;44.644;11.448;2023-07-13T07:33:36;4.47;;;2.95;;
12654;SDS011;6392;44.644;11.448;2023-07-13T07:36:03;10.07;;;4.00;;
12654;SDS011;6392;44.644;11.448;2023-07-13T07:38:32;8.68;;;3.70;;
12654;SDS011;6392;44.644;11.448;2023-07-13T07:41:02;7.55;;;3.40;;
12654;SDS011;6392;44.644;11.448;2023-07-13T07:43:29;7.38;;;3.58;;
12654;SDS011;6392;44.644;11.448;2023-07-13T07:45:57;6.05;;;4.20;;
12654;SDS011;6392;44.644;11.448;2023-07-13T07:48:24;8.52;;;4.20;;
12654;SDS011;6392;44.644;11.448;2023-07-13T07:50:51;10.32;;;4.20;;
12654;SDS011;6392;44.644;11.448;2023-07-13T07:53:18;5.97;;;4.30;;
12654;SDS011;6392;44.644;11.448;2023-07-13T07:55:46;7.38;;;4.03;;
12654;SDS011;6392;44.644;11.448;2023-07-13T07:58:13;6.75;;;3.72;;
12654;SDS011;6392;44.644;11.448;2023-07-13T08:00:41;8.52;;;3.08;;
12654;SDS011;6392;44.644;11.448;2023-07-13T08:03:08;9.43;;;3.47;;
12654;SDS011;6392;44.644;11.448;2023-07-13T08:05:35;6.15;;;3.50;;
12654;SDS011;6392;44.644;11.448;2023-07-13T08:08:03;7.55;;;3.45;;
12654;SDS011;6392;44.644;11.448;2023-07-13T08:10:30;8.30;;;3.67;;
12654;SDS011;6392;44.644;11.448;2023-07-13T08:12:58;6.88;;;2.97;;
12654;SDS011;6392;44.644;11.448;2023-07-13T08:15:25;7.35;;;3.53;;
12654;SDS011;6392;44.644;11.448;2023-07-13T08:17:52;4.57;;;2.90;;
12654;SDS011;6392;44.644;11.448;2023-07-13T08:20:19;7.10;;;3.28;;
12654;SDS011;6392;44.644;11.448;2023-07-13T08:22:46;7.22;;;3.42;;
12654;SDS011;6392;44.644;11.448;2023-07-13T08:25:13;7.30;;;2.55;;
12654;SDS011;6392;44.644;11.448;2023-07-13T08:27:41;9.00;;;3.25;;
12654;SDS011;6392;44.644;11.448;2023-07-13T08:30:09;4.93;;;3.10;;
12654;SDS011;6392;44.644;11.448;2023-07-13T08:32:36;4.20;;;2.60;;
12654;SDS011;6392;44.644;11.448;2023-07-13T08:35:04;6.70;;;2.92;;
12654;SDS011;6392;44.644;11.448;2023-07-13T08:37:31;6.75;;;3.00;;
12654;SDS011;6392;44.644;11.448;2023-07-13T08:39:58;6.90;;;2.80;;
12654;SDS011;6392;44.644;11.448;2023-07-13T08:42:29;3.67;;;2.58;;
12654;SDS011;6392;44.644;11.448;2023-07-13T08:45:03;4.05;;;2.40;;
12654;SDS011;6392;44.644;11.448;2023-07-13T08:47:48;5.60;;;2.70;;
12654;SDS011;6392;44.644;11.448;2023-07-13T08:50:20;5.07;;;2.33;;
12654;SDS011;6392;44.644;11.448;2023-07-13T08:52:52;5.07;;;2.13;;
12654;SDS011;6392;44.644;11.448;2023-07-13T08:55:24;6.32;;;2.95;;
12654;SDS011;6392;44.644;11.448;2023-07-13T08:57:56;6.72;;;2.80;;
12654;SDS011;6392;44.644;11.448;2023-07-13T09:00:33;7.35;;;2.42;;
12654;SDS011;6392;44.644;11.448;2023-07-13T09:03:10;5.78;;;2.30;;
12654;SDS011;6392;44.644;11.448;2023-07-13T09:05:45;4.90;;;2.75;;
12654;SDS011;6392;44.644;11.448;2023-07-13T09:08:33;3.95;;;2.58;;
12654;SDS011;6392;44.644;11.448;2023-07-13T09:11:14;6.43;;;2.50;;
12654;SDS011;6392;44.644;11.448;2023-07-13T09:13:51;6.32;;;2.63;;
12654;SDS011;6392;44.644;11.448;2023-07-13T09:16:26;6.18;;;2.50;;
12654;SDS011;6392;44.644;11.448;2023-07-13T09:18:56;4.30;;;2.55;;
12654;SDS011;6392;44.644;11.448;2023-07-13T09:21:28;5.93;;;2.55;;
12654;SDS011;6392;44.644;11.448;2023-07-13T09:23:59;6.70;;;3.30;;
12654;SDS011;6392;44.644;11.448;2023-07-13T09:26:48;6.68;;;2.50;;
12654;SDS011;6392;44.644;11.448;2023-07-13T09:29:18;7.05;;;3.42;;
12654;SDS011;6392;44.644;11.448;2023-07-13T09:31:55;7.07;;;2.60;;
12654;SDS011;6392;44.644;11.448;2023-07-13T09:34:29;5.85;;;3.13;;
12654;SDS011;6392;44.644;11.448;2023-07-13T09:36:57;5.43;;;2.63;;
12654;SDS011;6392;44.644;11.448;2023-07-13T09:39:25;7.65;;;2.50;;
12654;SDS011;6392;44.644;11.448;2023-07-13T09:41:55;6.68;;;2.25;;
12654;SDS011;6392;44.644;11.448;2023-07-13T09:44:28;3.80;;;2.40;;
12654;SDS011;6392;44.644;11.448;2023-07-13T09:46:57;6.20;;;2.42;;
12654;SDS011;6392;44.644;11.448;2023-07-13T09:49:24;5.68;;;2.17;;
12654;SDS011;6392;44.644;11.448;2023-07-13T09:51:58;5.85;;;2.45;;
12654;SDS011;6392;44.644;11.448;2023-07-13T09:54:27;6.03;;;2.50;;
12654;SDS011;6392;44.644;11.448;2023-07-13T09:56:54;5.40;;;2.85;;
12654;SDS011;6392;44.644;11.448;2023-07-13T09:59:23;6.68;;;2.85;;
12654;SDS011;6392;44.644;11.448;2023-07-13T10:01:53;4.97;;;2.42;;
12654;SDS011;6392;44.644;11.448;2023-07-13T10:04:26;5.18;;;2.75;;
12654;SDS011;6392;44.644;11.448;2023-07-13T10:07:05;7.43;;;2.55;;
12654;SDS011;6392;44.644;11.448;2023-07-13T10:09:34;5.15;;;2.70;;
12654;SDS011;6392;44.644;11.448;2023-07-13T10:12:01;6.68;;;2.40;;
12654;SDS011;6392;44.644;11.448;2023-07-13T10:14:29;6.72;;;2.72;;
12654;SDS011;6392;44.644;11.448;2023-07-13T10:16:58;6.25;;;2.38;;
12654;SDS011;6392;44.644;11.448;2023-07-13T10:19:27;4.50;;;2.30;;
12654;SDS011;6392;44.644;11.448;2023-07-13T10:21:59;4.65;;;2.92;;
12654;SDS011;6392;44.644;11.448;2023-07-13T10:24:30;5.32;;;2.60;;
12654;SDS011;6392;44.644;11.448;2023-07-13T10:27:00;8.32;;;2.42;;
12654;SDS011;6392;44.644;11.448;2023-07-13T10:29:34;5.15;;;2.40;;
12654;SDS011;6392;44.644;11.448;2023-07-13T10:32:06;9.73;;;2.90;;
12654;SDS011;6392;44.644;11.448;2023-07-13T10:34:37;6.85;;;2.95;;
12654;SDS011;6392;44.644;11.448;2023-07-13T10:37:05;8.80;;;2.97;;
12654;SDS011;6392;44.644;11.448;2023-07-13T10:39:35;7.15;;;2.67;;
12654;SDS011;6392;44.644;11.448;2023-07-13T10:42:04;5.88;;;2.55;;
12654;SDS011;6392;44.644;11.448;2023-07-13T10:44:38;6.22;;;3.00;;
12654;SDS011;6392;44.644;11.448;2023-07-13T10:47:06;5.78;;;2.90;;
12654;SDS011;6392;44.644;11.448;2023-07-13T10:49:37;6.47;;;3.13;;
12654;SDS011;6392;44.644;11.448;2023-07-13T10:52:05;5.07;;;2.90;;
12654;SDS011;6392;44.644;11.448;2023-07-13T10:54:54;8.15;;;2.45;;
12654;SDS011;6392;44.644;11.448;2023-07-13T10:57:22;7.45;;;2.50;;
12654;SDS011;6392;44.644;11.448;2023-07-13T10:59:49;4.72;;;2.50;;
12654;SDS011;6392;44.644;11.448;2023-07-13T11:02:41;7.55;;;3.10;;
12654;SDS011;6392;44.644;11.448;2023-07-13T11:05:14;4.82;;;2.17;;
12654;SDS011;6392;44.644;11.448;2023-07-13T11:07:52;4.70;;;2.40;;
12654;SDS011;6392;44.644;11.448;2023-07-13T11:19:24;4.97;;;2.88;;
12654;SDS011;6392;44.644;11.448;2023-07-13T11:22:16;4.90;;;3.38;;
12654;SDS011;6392;44.644;11.448;2023-07-13T11:24:49;6.50;;;3.25;;
12654;SDS011;6392;44.644;11.448;2023-07-13T11:27:25;6.63;;;3.03;;
12654;SDS011;6392;44.644;11.448;2023-07-13T11:30:13;6.68;;;3.47;;
12654;SDS011;6392;44.644;11.448;2023-07-13T11:32:51;8.48;;;4.05;;
12654;SDS011;6392;44.644;11.448;2023-07-13T11:35:32;7.13;;;4.50;;
12654;SDS011;6392;44.644;11.448;2023-07-13T11:38:01;7.50;;;4.00;;
12654;SDS011;6392;44.644;11.448;2023-07-13T11:40:29;19.40;;;12.75;;
12654;SDS011;6392;44.644;11.448;2023-07-13T11:43:01;7.57;;;4.03;;
12654;SDS011;6392;44.644;11.448;2023-07-13T11:45:28;9.23;;;6.47;;
12654;SDS011;6392;44.644;11.448;2023-07-13T11:47:57;11.63;;;7.30;;
12654;SDS011;6392;44.644;11.448;2023-07-13T11:50:25;9.30;;;4.68;;
12654;SDS011;6392;44.644;11.448;2023-07-13T11:52:53;8.27;;;5.05;;
12654;SDS011;6392;44.644;11.448;2023-07-13T11:55:22;8.30;;;3.92;;
12654;SDS011;6392;44.644;11.448;2023-07-13T11:57:50;7.93;;;4.70;;
12654;SDS011;6392;44.644;11.448;2023-07-13T12:00:25;8.15;;;4.93;;
12654;SDS011;6392;44.644;11.448;2023-07-13T12:02:56;8.32;;;5.07;;
12654;SDS011;6392;44.644;11.448;2023-07-13T12:05:25;7.70;;;4.55;;
12654;SDS011;6392;44.644;11.448;2023-07-13T12:07:53;12.27;;;7.15;;
12654;SDS011;6392;44.644;11.448;2023-07-13T12:10:22;10.80;;;4.95;;
12654;SDS011;6392;44.644;11.448;2023-07-13T12:12:52;6.13;;;4.60;;
12654;SDS011;6392;44.644;11.448;2023-07-13T12:15:21;7.40;;;4.25;;
12654;SDS011;6392;44.644;11.448;2023-07-13T12:17:55;8.85;;;6.05;;
12654;SDS011;6392;44.644;11.448;2023-07-13T12:20:24;13.32;;;9.02;;
12654;SDS011;6392;44.644;11.448;2023-07-13T12:22:53;9.15;;;4.88;;
12654;SDS011;6392;44.644;11.448;2023-07-13T12:25:20;11.60;;;5.15;;
12654;SDS011;6392;44.644;11.448;2023-07-13T12:27:49;15.02;;;8.48;;
12654;SDS011;6392;44.644;11.448;2023-07-13T12:30:24;8.93;;;6.18;;
12654;SDS011;6392;44.644;11.448;2023-07-13T12:33:01;9.63;;;5.25;;
12654;SDS011;6392;44.644;11.448;2023-07-13T12:35:38;9.43;;;6.13;;
12654;SDS011;6392;44.644;11.448;2023-07-13T12:38:09;11.05;;;6.88;;
12654;SDS011;6392;44.644;11.448;2023-07-13T12:40:37;8.88;;;6.63;;
12654;SDS011;6392;44.644;11.448;2023-07-13T12:43:05;10.32;;;6.47;;
12654;SDS011;6392;44.644;11.448;2023-07-13T12:45:40;8.52;;;6.07;;
12654;SDS011;6392;44.644;11.448;2023-07-13T12:48:22;8.63;;;4.70;;
12654;SDS011;6392;44.644;11.448;2023-07-13T12:50:49;10.07;;;6.70;;
12654;SDS011;6392;44.644;11.448;2023-07-13T12:53:17;10.45;;;4.68;;
12654;SDS011;6392;44.644;11.448;2023-07-13T12:55:47;7.78;;;4.22;;
12654;SDS011;6392;44.644;11.448;2023-07-13T12:58:21;8.95;;;4.10;;
12654;SDS011;6392;44.644;11.448;2023-07-13T13:00:53;10.25;;;4.53;;
12654;SDS011;6392;44.644;11.448;2023-07-13T13:03:23;10.20;;;6.05;;
12654;SDS011;6392;44.644;11.448;2023-07-13T13:05:57;11.18;;;4.50;;
12654;SDS011;6392;44.644;11.448;2023-07-13T13:08:28;10.15;;;4.30;;
12654;SDS011;6392;44.644;11.448;2023-07-13T13:10:55;10.15;;;5.07;;
12654;SDS011;6392;44.644;11.448;2023-07-13T13:13:22;9.05;;;6.25;;
12654;SDS011;6392;44.644;11.448;2023-07-13T13:15:49;10.68;;;4.50;;
12654;SDS011;6392;44.644;11.448;2023-07-13T13:18:19;5.07;;;2.88;;
12654;SDS011;6392;44.644;11.448;2023-07-13T13:20:48;6.35;;;3.72;;
12654;SDS011;6392;44.644;11.448;2023-07-13T13:23:16;8.27;;;5.53;;
12654;SDS011;6392;44.644;11.448;2023-07-13T13:25:45;8.27;;;3.80;;
12654;SDS011;6392;44.644;11.448;2023-07-13T13:28:14;9.10;;;6.22;;
12654;SDS011;6392;44.644;11.448;2023-07-13T13:30:43;6.65;;;4.07;;
12654;SDS011;6392;44.644;11.448;2023-07-13T13:33:11;9.68;;;3.97;;
12654;SDS011;6392;44.644;11.448;2023-07-13T13:35:41;6.78;;;4.10;;
12654;SDS011;6392;44.644;11.448;2023-07-13T13:38:09;10.00;;;5.07;;
12654;SDS011;6392;44.644;11.448;2023-07-13T13:40:39;8.45;;;5.43;;
12654;SDS011;6392;44.644;11.448;2023-07-13T13:43:16;11.88;;;5.03;;
12654;SDS011;6392;44.644;11.448;2023-07-13T13:45:44;6.25;;;3.72;;
12654;SDS011;6392;44.644;11.448;2023-07-13T13:48:16;6.93;;;4.32;;
12654;SDS011;6392;44.644;11.448;2023-07-13T13:50:46;7.97;;;5.22;;
12654;SDS011;6392;44.644;11.448;2023-07-13T13:53:14;8.05;;;3.95;;
12654;SDS011;6392;44.644;11.448;2023-07-13T13:55:41;4.07;;;3.25;;
12654;SDS011;6392;44.644;11.448;2023-07-13T13:58:08;7.13;;;2.95;;
12654;SDS011;6392;44.644;11.448;2023-07-13T14:00:36;7.13;;;4.40;;
12654;SDS011;6392;44.644;11.448;2023-07-13T14:03:03;7.75;;;4.40;;
12654;SDS011;6392;44.644;11.448;2023-07-13T14:05:32;6.07;;;4.35;;
12654;SDS011;6392;44.644;11.448;2023-07-13T14:08:01;6.82;;;4.70;;
12654;SDS011;6392;44.644;11.448;2023-07-13T14:10:27;9.38;;;5.13;;
12654;SDS011;6392;44.644;11.448;2023-07-13T14:12:55;6.28;;;3.53;;
12654;SDS011;6392;44.644;11.448;2023-07-13T14:15:24;7.43;;;4.20;;
12654;SDS011;6392;44.644;11.448;2023-07-13T14:17:52;6.93;;;4.05;;
12654;SDS011;6392;44.644;11.448;2023-07-13T14:20:23;6.60;;;4.18;;
12654;SDS011;6392;44.644;11.448;2023-07-13T14:22:51;6.57;;;4.75;;
12654;SDS011;6392;44.644;11.448;2023-07-13T14:25:21;7.57;;;4.78;;
12654;SDS011;6392;44.644;11.448;2023-07-13T14:27:49;10.68;;;3.75;;
12654;SDS011;6392;44.644;11.448;2023-07-13T14:30:24;5.40;;;3.10;;
12654;SDS011;6392;44.644;11.448;2023-07-13T14:32:51;8.02;;;3.42;;
12654;SDS011;6392;44.644;11.448;2023-07-13T14:35:19;8.25;;;3.72;;
12654;SDS011;6392;44.644;11.448;2023-07-13T14:37:48;10.52;;;4.20;;
12654;SDS011;6392;44.644;11.448;2023-07-13T14:40:16;6.28;;;3.63;;
12654;SDS011;6392;44.644;11.448;2023-07-13T14:42:51;7.43;;;3.22;;
12654;SDS011;6392;44.644;11.448;2023-07-13T14:45:19;6.25;;;3.45;;
12654;SDS011;6392;44.644;11.448;2023-07-13T14:47:47;9.05;;;2.90;;
12654;SDS011;6392;44.644;11.448;2023-07-13T14:50:15;7.70;;;2.88;;
12654;SDS011;6392;44.644;11.448;2023-07-13T14:52:44;7.18;;;3.10;;
12654;SDS011;6392;44.644;11.448;2023-07-13T14:55:13;6.65;;;3.65;;
12654;SDS011;6392;44.644;11.448;2023-07-13T14:57:41;5.07;;;3.10;;
12654;SDS011;6392;44.644;11.448;2023-07-13T15:00:14;5.82;;;3.30;;
12654;SDS011;6392;44.644;11.448;2023-07-13T15:02:43;7.05;;;3.72;;
12654;SDS011;6392;44.644;11.448;2023-07-13T15:05:13;8.18;;;5.32;;